Time;durP1;ratioP1;P1;durP2;ratioP2;P2;SDS_P1;SDS_P2;PMS_P1;PMS_P2;Temp;Humidity;BMP_temperature;BMP_pressure;BME280_temperature;BME280_humidity;BME280_pressure;Samples;Min_cycle;Max_cycle;Signal;HPM_P1;HPM_P2
2022/09/09 00:00:11;;;;;;;9.63;3.70;;;;;;;19.50;100.00;98520.28;5080328;28;20144;-93
2022/09/09 00:02:38;;;;;;;8.63;4.20;;;;;;;19.60;100.00;98542.09;5076172;28;20036;-95
2022/09/09 00:05:18;;;;;;;16.13;4.60;;;;;;;19.47;100.00;98511.53;5074315;28;20048;-95
2022/09/09 00:07:48;;;;;;;10.38;4.03;;;;;;;19.59;100.00;98521.50;5074187;28;20040;-95
2022/09/09 00:10:24;;;;;;;7.75;4.13;;;;;;;19.57;100.00;98503.69;5070714;28;20041;-94
2022/09/09 00:12:57;;;;;;;11.77;4.10;;;;;;;19.62;100.00;98515.03;5083222;28;20040;-95
2022/09/09 00:15:27;;;;;;;5.05;3.47;;;;;;;19.62;100.00;98513.19;5082909;28;20072;-95
2022/09/09 00:17:58;;;;;;;9.70;4.03;;;;;;;19.70;100.00;98508.19;5079214;28;20040;-94
2022/09/09 00:20:31;;;;;;;11.40;4.53;;;;;;;19.62;100.00;98501.53;5083938;28;20379;-94
2022/09/09 00:23:06;;;;;;;10.85;3.90;;;;;;;19.60;100.00;98496.25;5080802;28;20036;-95
2022/09/09 00:25:37;;;;;;;7.75;3.58;;;;;;;19.55;100.00;98481.38;5086770;28;20062;-95
2022/09/09 00:28:17;;;;;;;7.47;3.80;;;;;;;19.59;100.00;98488.28;5079321;28;20029;-94
2022/09/09 00:30:43;;;;;;;8.65;3.83;;;;;;;19.64;100.00;98503.16;5078917;28;20490;-94
2022/09/09 00:33:14;;;;;;;8.27;3.83;;;;;;;19.50;100.00;98478.97;5077422;28;20136;-95
2022/09/09 00:35:46;;;;;;;11.57;4.00;;;;;;;19.47;100.00;98493.56;5079926;28;20037;-95
2022/09/09 00:38:15;;;;;;;8.55;3.70;;;;;;;19.43;100.00;98501.91;5080674;28;20044;-95
2022/09/09 00:40:48;;;;;;;8.02;3.78;;;;;;;19.33;100.00;98492.75;5085692;28;20033;-96
2022/09/09 00:43:26;;;;;;;9.98;4.28;;;;;;;19.35;100.00;98494.38;5080558;28;20044;-95
2022/09/09 00:46:06;;;;;;;9.33;3.73;;;;;;;19.32;100.00;98499.09;5079512;28;20055;-95
2022/09/09 00:48:39;;;;;;;11.05;3.83;;;;;;;19.14;100.00;98468.84;5092400;28;20302;-94
2022/09/09 00:51:15;;;;;;;6.78;3.75;;;;;;;19.24;100.00;98488.84;5080298;28;20075;-94
2022/09/09 00:54:01;;;;;;;8.48;4.30;;;;;;;19.25;100.00;98493.25;5078887;28;20036;-95
2022/09/09 00:56:33;;;;;;;9.10;3.83;;;;;;;19.26;100.00;98497.69;5080893;28;20087;-94
2022/09/09 00:59:08;;;;;;;9.85;3.90;;;;;;;19.20;100.00;98487.31;5077807;28;20051;-95
2022/09/09 01:01:35;;;;;;;6.57;3.90;;;;;;;19.42;100.00;98508.31;5079910;28;20070;-94
2022/09/09 01:04:10;;;;;;;9.50;4.72;;;;;;;19.52;100.00;98513.91;5086111;28;20149;-94
2022/09/09 01:06:38;;;;;;;8.63;4.47;;;;;;;19.54;100.00;98526.34;5081523;28;20497;-95
2022/09/09 01:09:22;;;;;;;11.63;4.32;;;;;;;19.44;100.00;98504.53;5077765;28;20048;-95
2022/09/09 01:11:57;;;;;;;9.07;4.50;;;;;;;19.52;100.00;98497.75;5080683;28;20424;-94
2022/09/09 01:14:42;;;;;;;9.68;4.60;;;;;;;19.49;100.00;98502.38;5082760;28;20093;-94
2022/09/09 01:17:15;;;;;;;10.50;4.53;;;;;;;19.65;100.00;98525.63;5075871;28;20028;-94
2022/09/09 01:19:52;;;;;;;9.55;4.53;;;;;;;19.51;100.00;98502.28;5080516;28;20083;-96
2022/09/09 01:22:32;;;;;;;11.82;4.63;;;;;;;19.58;100.00;98517.09;5089204;28;20035;-93
2022/09/09 01:25:18;;;;;;;13.02;4.95;;;;;;;19.42;100.00;98494.81;5077624;28;20494;-94
2022/09/09 01:27:48;;;;;;;9.07;4.68;;;;;;;19.48;100.00;98491.72;5082448;28;20063;-95
2022/09/09 01:30:17;;;;;;;11.90;4.95;;;;;;;19.60;100.00;98506.19;5082089;28;20389;-94
2022/09/09 01:32:44;;;;;;;12.25;4.45;;;;;;;19.60;100.00;98496.25;5078620;28;20045;-93
2022/09/09 01:35:15;;;;;;;9.85;4.05;;;;;;;19.50;100.00;98473.59;5076596;28;20051;-94
2022/09/09 01:37:41;;;;;;;11.95;4.35;;;;;;;19.58;100.00;98473.06;5077429;28;20033;-93
2022/09/09 01:40:08;;;;;;;9.95;5.38;;;;;;;19.58;100.00;98473.94;5077436;28;20064;-95
2022/09/09 01:42:34;;;;;;;9.93;4.15;;;;;;;19.54;100.00;98458.94;5079350;28;20029;-95
2022/09/09 01:45:01;;;;;;;12.90;4.80;;;;;;;19.74;100.00;98468.38;5084071;28;20038;-96
2022/09/09 01:47:27;;;;;;;11.00;4.43;;;;;;;19.77;100.00;98478.06;5084229;28;20040;-95
2022/09/09 01:49:53;;;;;;;7.95;3.97;;;;;;;19.80;100.00;98473.34;5077108;28;20520;-93
2022/09/09 01:52:19;;;;;;;14.77;5.22;;;;;;;19.78;100.00;98464.50;5076753;28;20049;-93
2022/09/09 01:54:45;;;;;;;14.55;4.60;;;;;;;19.74;100.00;98457.56;5077057;28;20200;-95
2022/09/09 01:57:20;;;;;;;11.10;4.28;;;;;;;19.75;100.00;98444.94;5069128;28;20083;-95
2022/09/09 01:59:59;;;;;;;9.80;4.10;;;;;;;19.76;100.00;98450.25;5079254;28;20067;-94
2022/09/09 02:02:32;;;;;;;11.70;4.55;;;;;;;19.81;100.00;98476.91;5079885;28;20036;-96
2022/09/09 02:05:09;;;;;;;10.38;5.07;;;;;;;19.75;100.00;98477.31;5084713;28;20072;-94
2022/09/09 02:07:40;;;;;;;11.98;5.00;;;;;;;19.77;100.00;98487.03;5077070;28;20039;-95
2022/09/09 02:10:13;;;;;;;10.05;4.65;;;;;;;19.76;100.00;98490.72;5078936;28;20044;-94
2022/09/09 02:12:44;;;;;;;11.55;3.90;;;;;;;19.73;100.00;98490.06;5086590;28;20077;-94
2022/09/09 02:15:20;;;;;;;10.75;4.05;;;;;;;19.64;100.00;98484.28;5079868;28;20118;-94
2022/09/09 02:17:50;;;;;;;7.75;4.07;;;;;;;19.68;100.00;98476.84;5089576;28;20040;-95
2022/09/09 02:20:19;;;;;;;9.63;4.38;;;;;;;19.76;100.00;98473.66;5076629;28;20042;-93
2022/09/09 02:22:49;;;;;;;8.25;4.20;;;;;;;19.65;100.00;98468.97;5078598;28;20067;-93
2022/09/09 02:25:19;;;;;;;11.05;4.10;;;;;;;19.59;100.00;98466.69;5075183;28;20070;-95
2022/09/09 02:27:49;;;;;;;12.95;4.70;;;;;;;19.63;100.00;98468.22;5080430;28;20036;-93
2022/09/09 02:30:15;;;;;;;8.82;4.30;;;;;;;19.67;100.00;98473.28;5081254;28;20097;-95
2022/09/09 02:32:44;;;;;;;12.93;4.97;;;;;;;19.74;100.00;98472.91;5078945;28;20041;-94
2022/09/09 02:35:14;;;;;;;;;;;;;;;19.75;100.00;98488.97;5078981;28;20497;-95
2022/09/09 02:37:41;;;;;;;10.70;4.18;;;;;;;19.62;100.00;98455.69;5081939;28;19973;-96
2022/09/09 02:40:10;;;;;;;10.63;4.32;;;;;;;19.76;100.00;98479.91;5080512;28;20049;-94
2022/09/09 02:42:39;;;;;;;9.90;4.25;;;;;;;19.75;100.00;98477.31;5081055;28;20047;-95
2022/09/09 02:45:07;;;;;;;9.77;4.10;;;;;;;19.76;100.00;98477.22;5077240;28;20033;-94
2022/09/09 02:47:36;;;;;;;9.55;4.32;;;;;;;19.80;100.00;98477.84;5077826;28;20110;-95
2022/09/09 02:50:10;;;;;;;7.88;4.07;;;;;;;19.75;100.00;98472.78;5078888;28;20047;-95
2022/09/09 02:52:48;;;;;;;8.07;4.13;;;;;;;19.67;100.00;98469.75;5080923;28;20048;-94
2022/09/09 02:55:21;;;;;;;8.55;4.13;;;;;;;19.63;100.00;98462.81;5076062;28;20064;-94
2022/09/09 02:57:49;;;;;;;16.90;5.00;;;;;;;19.63;100.00;98460.13;5077143;28;20032;-95
2022/09/09 03:00:14;;;;;;;10.73;3.90;;;;;;;19.67;100.00;98448.16;5073154;28;20036;-94
2022/09/09 03:02:42;;;;;;;12.07;4.70;;;;;;;19.70;100.00;98456.06;5078462;28;20127;-93
2022/09/09 03:05:08;;;;;;;13.52;4.45;;;;;;;19.71;100.00;98468.56;5083217;28;20044;-95
2022/09/09 03:07:34;;;;;;;9.70;3.70;;;;;;;19.63;100.00;98457.44;5077447;28;20610;-93
2022/09/09 03:10:02;;;;;;;9.98;4.57;;;;;;;19.61;100.00;98459.38;5082157;28;20498;-96
2022/09/09 03:12:28;;;;;;;10.55;3.88;;;;;;;19.53;100.00;98448.25;5083734;28;20099;-95
2022/09/09 03:14:54;;;;;;;9.88;4.93;;;;;;;19.49;100.00;98456.53;5080450;28;20064;-96
2022/09/09 03:17:20;;;;;;;10.30;4.22;;;;;;;19.43;100.00;98459.66;5078842;28;20051;-96
2022/09/09 03:19:45;;;;;;;9.82;4.10;;;;;;;19.26;100.00;98447.31;5081129;28;20033;-95
2022/09/09 03:22:13;;;;;;;10.38;4.13;;;;;;;19.20;100.00;98450.44;5077584;28;20508;-94
2022/09/09 03:24:40;;;;;;;10.63;4.80;;;;;;;19.13;100.00;98442.84;5084553;28;20086;-95
2022/09/09 03:27:07;;;;;;;8.27;4.25;;;;;;;19.00;100.00;98449.09;5075364;28;20085;-93
2022/09/09 03:29:33;;;;;;;11.93;4.63;;;;;;;19.03;100.00;98448.00;5076695;28;20048;-95
2022/09/09 03:31:59;;;;;;;8.63;4.00;;;;;;;19.02;100.00;98447.16;5082902;28;20048;-95
2022/09/09 03:34:24;;;;;;;7.70;4.45;;;;;;;18.81;100.00;98427.03;5083711;28;20432;-94
2022/09/09 03:36:50;;;;;;;11.57;4.50;;;;;;;18.87;100.00;98432.00;5076950;28;20063;-95
2022/09/09 03:39:16;;;;;;;13.38;5.00;;;;;;;18.80;100.00;98426.16;5078429;28;20478;-94
2022/09/09 03:41:47;;;;;;;8.32;5.05;;;;;;;18.79;100.00;98432.50;5077692;28;20493;-95
2022/09/09 03:44:14;;;;;;;11.95;4.70;;;;;;;18.81;100.00;98435.97;5075383;28;20044;-92
2022/09/09 03:46:40;;;;;;;10.25;4.68;;;;;;;18.76;100.00;98424.59;5074041;28;20044;-94
2022/09/09 03:49:06;;;;;;;9.25;4.32;;;;;;;18.70;100.00;98418.75;5079490;28;20145;-93
2022/09/09 03:51:36;;;;;;;10.55;5.13;;;;;;;18.76;100.00;98434.50;5077940;28;20123;-95
2022/09/09 03:54:04;;;;;;;8.27;4.50;;;;;;;18.81;100.00;98443.19;5083464;28;20040;-94
2022/09/09 03:56:30;;;;;;;;;;;;;;;18.82;100.00;98453.88;5078143;28;20075;-95
2022/09/09 03:58:57;;;;;;;8.93;4.28;;;;;;;18.76;100.00;98445.25;5074489;28;19921;-94
2022/09/09 04:01:25;;;;;;;12.65;4.60;;;;;;;18.78;100.00;98449.66;5073977;28;20033;-94
2022/09/09 04:03:52;;;;;;;8.43;4.80;;;;;;;18.74;100.00;98431.06;5075411;28;20067;-93
2022/09/09 04:06:19;;;;;;;12.35;4.70;;;;;;;18.76;100.00;98434.50;5073716;28;20498;-96
2022/09/09 04:08:48;;;;;;;12.35;4.50;;;;;;;18.77;100.00;98447.88;5084985;28;20425;-94
2022/09/09 04:11:15;;;;;;;8.90;3.97;;;;;;;18.90;100.00;98457.88;5079543;28;20041;-96
2022/09/09 04:13:42;;;;;;;8.20;4.40;;;;;;;18.93;100.00;98460.34;5076753;28;20032;-96
2022/09/09 04:16:11;;;;;;;7.65;4.43;;;;;;;18.82;100.00;98423.34;5080301;28;20040;-94
2022/09/09 04:18:38;;;;;;;11.40;4.35;;;;;;;19.03;100.00;98458.78;5082274;28;20119;-96
2022/09/09 04:21:06;;;;;;;7.22;4.00;;;;;;;19.06;100.00;98458.56;5078876;28;20090;-93
2022/09/09 04:23:34;;;;;;;11.85;4.68;;;;;;;19.05;100.00;98448.78;5078539;28;20055;-95
2022/09/09 04:26:01;;;;;;;8.75;4.15;;;;;;;19.15;100.00;98455.28;5078354;28;20051;-94
2022/09/09 04:28:28;;;;;;;9.85;3.67;;;;;;;19.21;100.00;98456.69;5076314;28;20032;-94
2022/09/09 04:30:55;;;;;;;10.40;4.10;;;;;;;19.22;100.00;98451.19;5080968;28;20516;-94
2022/09/09 04:33:21;;;;;;;8.57;4.47;;;;;;;19.15;100.00;98432.81;5077739;28;20044;-94
2022/09/09 04:35:50;;;;;;;8.68;4.18;;;;;;;19.21;100.00;98443.19;5084984;28;20093;-95
2022/09/09 04:38:16;;;;;;;13.63;4.50;;;;;;;19.26;100.00;98450.03;5081875;28;20032;-94
2022/09/09 04:40:43;;;;;;;9.10;4.07;;;;;;;19.29;100.00;98451.63;5076417;28;20040;-94
2022/09/09 04:43:09;;;;;;;11.50;4.80;;;;;;;19.32;100.00;98450.56;5075140;28;20441;-94
2022/09/09 04:45:35;;;;;;;9.05;4.20;;;;;;;19.39;100.00;98462.69;5075765;28;20520;-95
2022/09/09 04:48:02;;;;;;;11.40;4.53;;;;;;;19.41;100.00;98458.03;5078741;28;20051;-95
2022/09/09 04:50:28;;;;;;;7.50;4.05;;;;;;;19.43;100.00;98459.66;5080976;28;20082;-94
2022/09/09 04:52:56;;;;;;;8.75;4.32;;;;;;;19.46;100.00;98456.75;5076554;28;20056;-94
2022/09/09 04:55:22;;;;;;;6.65;3.70;;;;;;;19.46;100.00;98455.88;5077696;28;20044;-92
2022/09/09 04:57:48;;;;;;;9.48;5.07;;;;;;;19.40;100.00;98445.53;5078323;28;20478;-94
2022/09/09 05:00:15;;;;;;;11.38;4.43;;;;;;;19.44;100.00;98453.28;5077433;28;20512;-94
2022/09/09 05:02:42;;;;;;;11.25;4.32;;;;;;;19.43;100.00;98445.28;5081619;28;20044;-96
2022/09/09 05:05:08;;;;;;;8.63;4.53;;;;;;;19.44;100.00;98436.25;5078926;28;20041;-95
2022/09/09 05:07:34;;;;;;;8.88;3.97;;;;;;;19.58;100.00;98462.25;5081623;28;20032;-93
2022/09/09 05:10:04;;;;;;;8.57;4.13;;;;;;;19.61;100.00;98467.47;5082898;28;20479;-93
2022/09/09 05:12:31;;;;;;;7.50;4.07;;;;;;;19.70;100.00;98469.56;5086185;28;20151;-95
2022/09/09 05:14:57;;;;;;;9.57;4.22;;;;;;;19.68;100.00;98471.47;5078545;28;20440;-95
2022/09/09 05:17:23;;;;;;;22.35;4.85;;;;;;;19.64;100.00;98465.41;5084147;28;20040;-95
2022/09/09 05:19:49;;;;;;;12.70;5.43;;;;;;;19.72;100.00;98467.63;5081872;28;20048;-94
2022/09/09 05:22:19;;;;;;;9.65;4.40;;;;;;;19.71;100.00;98457.78;5077023;28;20106;-94
2022/09/09 05:24:45;;;;;;;9.80;5.28;;;;;;;19.79;100.00;98476.13;5077308;28;20079;-93
2022/09/09 05:27:12;;;;;;;8.50;4.72;;;;;;;19.74;100.00;98465.66;5081737;28;20068;-95
2022/09/09 05:29:38;;;;;;;11.60;4.78;;;;;;;19.79;100.00;98460.81;5076101;28;20109;-93
2022/09/09 05:32:04;;;;;;;10.20;4.55;;;;;;;19.93;100.00;98472.47;5077752;28;20498;-94
2022/09/09 05:34:30;;;;;;;10.75;4.68;;;;;;;19.95;100.00;98465.13;5084822;28;20097;-95
2022/09/09 05:36:56;;;;;;;13.80;4.57;;;;;;;20.05;100.00;98458.97;5080096;28;20032;-94
2022/09/09 05:39:22;;;;;;;12.50;4.95;;;;;;;20.23;100.00;98473.03;5084502;28;20036;-95
2022/09/09 05:41:47;;;;;;;12.88;4.78;;;;;;;20.32;100.00;98476.91;5089661;28;20379;-95
2022/09/09 05:44:15;;;;;;;10.90;4.55;;;;;;;20.29;100.00;98464.47;5081912;28;20043;-94
2022/09/09 05:46:41;;;;;;;11.57;4.47;;;;;;;20.27;100.00;98463.69;5083408;28;20043;-95
2022/09/09 05:49:08;;;;;;;15.82;4.53;;;;;;;20.37;100.00;98496.31;5078153;28;20045;-93
2022/09/09 05:51:34;;;;;;;9.95;5.07;;;;;;;20.27;100.00;98468.25;5078090;28;20043;-93
2022/09/09 05:54:00;;;;;;;10.55;4.95;;;;;;;20.37;100.00;98482.81;5078421;28;20554;-94
2022/09/09 05:56:27;;;;;;;12.57;4.90;;;;;;;20.30;100.00;98478.84;5079999;28;20525;-93
2022/09/09 05:58:54;;;;;;;12.48;5.90;;;;;;;20.22;100.00;98482.06;5078970;28;20129;-93
2022/09/09 06:01:22;;;;;;;11.10;6.18;;;;;;;20.09;100.00;98465.88;5085749;28;20405;-93
2022/09/09 06:03:50;;;;;;;12.93;5.68;;;;;;;20.09;100.00;98470.44;5063251;28;20502;-93
2022/09/09 06:06:18;;;;;;;11.55;5.72;;;;;;;20.08;100.00;98468.69;5064150;28;20041;-95
2022/09/09 06:08:45;;;;;;;;;;;;;;;20.30;100.00;98493.19;5065275;28;20037;-95
2022/09/09 06:11:13;;;;;;;12.45;5.75;;;;;;;20.29;100.00;98483.34;5101915;28;19920;-94
2022/09/09 06:13:39;;;;;;;11.82;5.85;;;;;;;20.34;100.00;98479.47;5093792;28;20414;-93
2022/09/09 06:16:08;;;;;;;11.15;5.20;;;;;;;20.46;100.00;98492.09;5084616;28;20071;-94
2022/09/09 06:18:35;;;;;;;13.82;5.07;;;;;;;20.62;100.00;98498.13;5076442;28;20036;-92
2022/09/09 06:21:04;;;;;;;8.73;4.70;;;;;;;20.65;100.00;98484.41;5075109;28;20386;-93
2022/09/09 06:23:30;;;;;;;10.48;5.32;;;;;;;20.75;100.00;98483.75;5080119;28;20406;-93
2022/09/09 06:26:05;;;;;;;11.25;4.68;;;;;;;20.93;100.00;98494.06;5085489;28;20082;-93
2022/09/09 06:28:31;;;;;;;10.63;5.03;;;;;;;21.02;99.57;98481.72;5073031;28;20032;-93
2022/09/09 06:30:58;;;;;;;9.70;4.75;;;;;;;21.16;96.72;98493.31;5081518;28;20123;-94
2022/09/09 06:33:24;;;;;;;13.25;5.07;;;;;;;21.17;97.17;98486.97;5077429;28;20101;-94
2022/09/09 06:35:53;;;;;;;15.55;5.55;;;;;;;21.21;95.53;98472.19;5079048;28;20689;-94
2022/09/09 06:38:21;;;;;;;15.00;6.07;;;;;;;21.39;95.49;98495.16;5077514;28;20048;-93
2022/09/09 06:40:51;;;;;;;14.18;6.00;;;;;;;21.49;95.63;98490.81;5077202;28;20131;-92
2022/09/09 06:43:18;;;;;;;12.70;5.90;;;;;;;21.64;93.37;98502.31;5078391;28;20123;-94
2022/09/09 06:45:52;;;;;;;10.98;5.25;;;;;;;21.74;93.65;98495.19;5076727;28;20029;-94
2022/09/09 06:48:18;;;;;;;12.88;6.22;;;;;;;21.74;91.30;98505.16;5080088;28;20037;-93
2022/09/09 06:50:44;;;;;;;12.40;5.38;;;;;;;21.74;92.26;98505.16;5077151;28;20406;-93
2022/09/09 06:53:12;;;;;;;12.48;6.00;;;;;;;21.99;91.60;98514.97;5079826;28;20047;-93
2022/09/09 06:55:40;;;;;;;16.63;5.67;;;;;;;22.15;89.44;98499.22;5075191;28;20059;-92
2022/09/09 06:58:08;;;;;;;17.08;5.22;;;;;;;22.44;86.94;98517.72;5075949;28;20041;-91
2022/09/09 07:00:33;;;;;;;10.73;4.87;;;;;;;22.59;86.49;98496.69;5078179;28;20098;-93
2022/09/09 07:02:59;;;;;;;12.70;4.90;;;;;;;22.72;85.40;98494.69;5077203;28;20281;-92
2022/09/09 07:05:25;;;;;;;10.18;5.05;;;;;;;22.82;83.90;98486.69;5080319;28;20041;-93
2022/09/09 07:07:52;;;;;;;13.05;5.38;;;;;;;23.01;83.71;98502.34;5079238;28;20036;-92
2022/09/09 07:10:19;;;;;;;9.70;4.85;;;;;;;23.29;82.60;98521.72;5077432;28;20136;-92
2022/09/09 07:12:49;;;;;;;9.82;4.68;;;;;;;23.42;80.78;98510.72;5076781;28;20060;-92
2022/09/09 07:15:15;;;;;;;14.77;5.28;;;;;;;23.49;79.39;98509.22;5077946;28;20040;-92
2022/09/09 07:17:41;;;;;;;14.60;5.95;;;;;;;23.64;79.32;98515.19;5076845;28;20050;-92
2022/09/09 07:20:08;;;;;;;13.73;4.85;;;;;;;23.67;79.82;98514.94;5073865;28;20049;-92
2022/09/09 07:22:33;;;;;;;13.55;5.47;;;;;;;23.70;77.84;98509.22;5076817;28;20037;-93
2022/09/09 07:24:59;;;;;;;10.13;5.15;;;;;;;23.79;77.90;98524.78;5078162;28;20043;-93
2022/09/09 07:27:27;;;;;;;12.70;5.00;;;;;;;23.87;76.58;98513.25;5075269;28;20040;-92
2022/09/09 07:29:54;;;;;;;11.57;4.57;;;;;;;23.71;77.42;98525.41;5073170;28;20064;-92
2022/09/09 07:32:19;;;;;;;10.07;4.03;;;;;;;23.70;76.23;98526.41;5074162;28;20543;-92
2022/09/09 07:34:46;;;;;;;8.43;3.90;;;;;;;23.46;77.31;98521.16;5077123;28;20040;-91
2022/09/09 07:37:13;;;;;;;9.38;3.97;;;;;;;23.61;77.12;98507.31;5077934;28;20147;-90
2022/09/09 07:39:39;;;;;;;11.82;4.10;;;;;;;23.83;76.84;98525.38;5076914;28;19959;-93
2022/09/09 07:42:05;;;;;;;11.75;5.00;;;;;;;23.98;77.21;98515.91;5073857;28;21880;-92
2022/09/09 07:44:34;;;;;;;12.23;5.50;;;;;;;24.19;75.81;98511.31;5077010;28;20063;-92
2022/09/09 07:47:00;;;;;;;13.07;6.05;;;;;;;23.95;75.53;98527.91;5076029;28;20100;-92
2022/09/09 07:49:26;;;;;;;15.77;5.95;;;;;;;23.95;77.02;98529.75;5079183;28;20119;-93
2022/09/09 07:51:52;;;;;;;13.27;6.47;;;;;;;24.21;76.56;98522.06;5077397;28;20039;-89
2022/09/09 07:54:20;;;;;;;13.40;6.10;;;;;;;24.42;75.88;98507.56;5078802;28;20078;-90
2022/09/09 07:56:46;;;;;;;13.02;6.65;;;;;;;24.63;73.83;98521.16;5078048;28;20048;-93
2022/09/09 07:59:13;;;;;;;17.33;7.45;;;;;;;24.36;74.47;98522.59;5077932;28;20039;-93
2022/09/09 08:01:43;;;;;;;14.75;5.97;;;;;;;24.23;75.31;98528.22;5077975;28;20036;-92
2022/09/09 08:04:15;;;;;;;14.45;6.00;;;;;;;24.34;74.85;98533.56;5072495;28;20514;-92
2022/09/09 08:06:43;;;;;;;13.13;5.20;;;;;;;24.25;73.59;98533.53;5074960;28;20051;-94
2022/09/09 08:09:09;;;;;;;14.18;5.68;;;;;;;24.25;74.90;98515.38;5074711;28;20041;-93
2022/09/09 08:11:36;;;;;;;12.85;6.88;;;;;;;24.35;74.20;98512.69;5079090;28;20072;-92
2022/09/09 08:14:02;;;;;;;15.02;6.05;;;;;;;24.18;75.71;98534.06;5077225;28;20083;-93
2022/09/09 08:16:30;;;;;;;13.30;6.05;;;;;;;24.32;74.71;98521.97;5073380;28;20045;-92
2022/09/09 08:18:58;;;;;;;11.13;5.63;;;;;;;24.33;74.13;98517.41;5078313;28;20051;-93
2022/09/09 08:21:27;;;;;;;12.77;6.05;;;;;;;24.31;74.78;98530.25;5079890;28;20055;-93
2022/09/09 08:23:55;;;;;;;11.27;5.45;;;;;;;24.39;72.69;98528.59;5074449;28;20043;-92
2022/09/09 08:26:23;;;;;;;9.48;5.43;;;;;;;24.34;73.09;98532.72;5075646;28;20445;-93
2022/09/09 08:28:51;;;;;;;10.65;5.18;;;;;;;24.34;73.58;98530.00;5074636;28;20408;-93
2022/09/09 08:31:19;;;;;;;10.32;5.20;;;;;;;24.44;73.58;98540.91;5077423;28;20037;-92
2022/09/09 08:33:45;;;;;;;13.75;4.88;;;;;;;24.37;72.71;98513.41;5079254;28;20044;-91
2022/09/09 08:36:15;;;;;;;12.57;5.40;;;;;;;24.65;72.37;98521.88;5085709;28;20033;-93
2022/09/09 08:38:42;;;;;;;13.07;5.53;;;;;;;24.88;72.43;98547.88;5083163;28;20029;-93
2022/09/09 08:41:39;;;;;;;13.77;5.53;;;;;;;25.15;71.59;98539.06;5079682;28;20481;-93
2022/09/09 08:44:11;;;;;;;12.23;5.07;;;;;;;25.38;70.02;98533.44;5084010;28;20044;-92
2022/09/09 08:46:46;;;;;;;13.63;5.65;;;;;;;25.54;69.32;98549.22;5077283;28;20041;-94
2022/09/09 08:49:26;;;;;;;16.75;5.93;;;;;;;25.70;69.81;98544.06;5085477;28;20044;-94
2022/09/09 08:51:57;;;;;;;15.63;5.40;;;;;;;25.59;69.02;98526.00;5076837;28;20049;-95
2022/09/09 08:54:26;;;;;;;11.63;5.00;;;;;;;25.53;70.53;98540.19;5084518;28;20043;-93
2022/09/09 08:56:52;;;;;;;17.42;6.95;;;;;;;25.49;69.88;98541.47;5085544;28;20036;-93
2022/09/09 08:59:19;;;;;;;16.50;7.30;;;;;;;25.62;70.40;98533.88;5080894;28;20079;-92
2022/09/09 09:01:55;;;;;;;15.82;5.70;;;;;;;25.91;69.24;98543.94;5080485;28;20067;-94
2022/09/09 09:04:38;;;;;;;10.82;4.80;;;;;;;26.11;65.34;98539.34;5080841;28;20032;-91
2022/09/09 09:07:17;;;;;;;15.32;5.20;;;;;;;26.10;64.93;98532.16;5079116;28;20044;-93
2022/09/09 09:09:53;;;;;;;10.85;4.90;;;;;;;25.95;67.26;98542.66;5081622;28;20050;-91
2022/09/09 09:12:21;;;;;;;10.48;4.65;;;;;;;25.86;66.23;98526.28;5080512;28;20064;-94
2022/09/09 09:14:48;;;;;;;;;;;;;;;26.05;66.97;98539.94;5074033;28;20051;-94
2022/09/09 09:17:16;;;;;;;11.43;4.60;;;;;;;26.17;65.88;98524.25;5079244;28;19951;-92
2022/09/09 09:19:43;;;;;;;12.32;5.20;;;;;;;26.01;66.83;98524.88;5079225;28;20562;-90
2022/09/09 09:22:17;;;;;;;9.40;5.13;;;;;;;26.12;65.36;98532.88;5077408;28;20036;-92
2022/09/09 09:24:50;;;;;;;12.70;4.88;;;;;;;26.32;65.29;98539.16;5073573;28;20389;-91
2022/09/09 09:27:35;;;;;;;11.35;4.57;;;;;;;26.55;63.09;98536.09;5074813;28;20063;-91
2022/09/09 09:30:05;;;;;;;11.70;5.25;;;;;;;26.69;62.76;98523.84;5073884;28;20562;-91
2022/09/09 09:32:34;;;;;;;11.00;4.88;;;;;;;26.65;61.20;98526.00;5074013;28;20441;-92
2022/09/09 09:35:07;;;;;;;11.07;5.07;;;;;;;26.75;61.81;98509.63;5076321;28;20071;-94
2022/09/09 09:37:35;;;;;;;12.75;4.88;;;;;;;25.98;61.54;98498.78;5076409;28;20052;-94
2022/09/09 09:40:12;;;;;;;14.13;5.77;;;;;;;26.04;63.25;98513.66;5079915;28;20062;-93
2022/09/09 09:42:49;;;;;;;10.20;5.05;;;;;;;26.07;64.76;98520.69;5078936;28;20341;-94
2022/09/09 09:45:23;;;;;;;13.68;5.43;;;;;;;26.21;63.12;98514.78;5077968;28;20040;-93
2022/09/09 09:47:58;;;;;;;17.17;5.20;;;;;;;26.32;62.75;98519.22;5077417;28;20033;-95
2022/09/09 09:50:24;;;;;;;9.93;5.10;;;;;;;26.56;61.56;98510.56;5076406;28;20347;-93
2022/09/09 09:52:57;;;;;;;12.10;4.80;;;;;;;26.81;60.39;98496.22;5077834;28;20136;-93
2022/09/09 09:55:24;;;;;;;13.38;4.95;;;;;;;26.93;61.00;98504.22;5076355;28;20061;-92
2022/09/09 09:57:50;;;;;;;11.82;4.20;;;;;;;27.05;57.39;98479.28;5073913;28;20589;-96
2022/09/09 10:00:18;;;;;;;12.45;4.30;;;;;;;27.12;57.71;98487.72;5077740;28;20056;-94
2022/09/09 10:02:46;;;;;;;17.02;5.20;;;;;;;26.98;55.18;98470.00;5076374;28;20041;-94
2022/09/09 10:05:14;;;;;;;12.55;4.28;;;;;;;26.90;55.18;98479.97;5074627;28;20048;-96
2022/09/09 10:07:40;;;;;;;9.10;4.03;;;;;;;27.04;51.75;98471.25;5075984;28;20048;-96
2022/09/09 10:10:15;;;;;;;8.10;3.95;;;;;;;27.17;51.56;98463.56;5075300;28;20132;-96
2022/09/09 10:12:52;;;;;;;11.93;4.15;;;;;;;26.89;53.73;98486.41;5075412;28;20041;-95
2022/09/09 10:15:32;;;;;;;10.07;4.10;;;;;;;26.98;51.75;98461.81;5081724;28;20049;-94
2022/09/09 10:18:09;;;;;;;7.03;3.10;;;;;;;26.89;46.87;98468.22;5066796;28;20036;-94
2022/09/09 10:20:44;;;;;;;9.13;2.70;;;;;;;26.68;43.52;98471.19;5075383;28;20041;-95
2022/09/09 10:23:25;;;;;;;7.30;2.53;;;;;;;26.67;41.01;98460.41;5075335;28;20072;-95
2022/09/09 10:26:10;;;;;;;10.27;3.90;;;;;;;26.90;46.14;98467.19;5075709;28;20040;-94
2022/09/09 10:28:57;;;;;;;11.75;4.35;;;;;;;26.61;47.85;98475.53;5077617;28;20494;-96
2022/09/09 10:31:34;;;;;;;7.78;3.80;;;;;;;26.83;50.32;98466.09;5076633;28;20520;-94
2022/09/09 10:34:10;;;;;;;11.57;3.90;;;;;;;26.79;46.53;98460.06;5075656;28;20123;-96
2022/09/09 10:36:43;;;;;;;10.25;4.32;;;;;;;27.00;47.19;98454.34;5075400;28;20048;-96
2022/09/09 10:39:23;;;;;;;13.73;4.13;;;;;;;27.31;48.41;98456.75;5077426;28;20092;-96
2022/09/09 10:42:02;;;;;;;12.25;5.00;;;;;;;27.25;48.89;98447.28;5080311;28;20040;-95
2022/09/09 10:44:36;;;;;;;;;;;;;;;27.16;50.27;98458.25;5080709;28;20561;-95
2022/09/09 10:47:30;;;;;;;12.60;5.72;;;;;;;26.64;52.56;98450.66;5078103;28;19931;-92
2022/09/09 10:50:17;;;;;;;16.55;6.03;;;;;;;26.68;54.44;98457.53;5070636;28;20041;-93
2022/09/09 10:52:58;;;;;;;12.98;5.18;;;;;;;26.87;55.46;98450.25;5077109;28;20371;-92
2022/09/09 10:55:28;;;;;;;16.13;5.25;;;;;;;27.05;54.02;98449.28;5068826;28;20053;-96
2022/09/09 10:57:58;;;;;;;16.20;5.47;;;;;;;27.15;53.50;98435.56;5075795;28;20036;-94
2022/09/09 11:00:31;;;;;;;17.35;6.00;;;;;;;27.38;54.27;98432.41;5076064;28;20068;-94
2022/09/09 11:03:00;;;;;;;14.75;6.05;;;;;;;27.71;54.17;98446.34;5075985;28;20094;-95
2022/09/09 11:05:30;;;;;;;15.80;5.68;;;;;;;27.04;51.71;98444.84;5077222;28;20127;-96
2022/09/09 11:07:59;;;;;;;18.30;5.07;;;;;;;26.64;53.91;98443.34;5074743;28;20040;-94
2022/09/09 11:10:34;;;;;;;21.13;5.20;;;;;;;26.62;54.14;98444.50;5086028;28;20101;-95
2022/09/09 11:13:05;;;;;;;16.70;5.10;;;;;;;26.72;54.56;98431.69;5075888;28;20048;-96
2022/09/09 11:15:37;;;;;;;13.13;5.13;;;;;;;26.80;53.61;98452.72;5075098;28;20052;-92
2022/09/09 11:18:06;;;;;;;10.93;4.85;;;;;;;26.55;54.75;98429.72;5074831;28;21557;-93
2022/09/09 11:20:32;;;;;;;12.75;5.15;;;;;;;26.80;52.61;98423.56;5074547;28;20071;-95
2022/09/09 11:23:04;;;;;;;14.60;4.97;;;;;;;27.06;52.96;98420.09;5078234;28;20045;-95
2022/09/09 11:25:38;;;;;;;12.68;4.97;;;;;;;26.78;53.27;98417.44;5077331;28;20064;-95
2022/09/09 11:28:32;;;;;;;12.27;5.45;;;;;;;26.57;56.18;98425.03;5076395;28;20041;-94
2022/09/09 11:31:12;;;;;;;15.57;4.88;;;;;;;26.70;57.02;98435.56;5077433;28;20040;-95
2022/09/09 11:34:03;;;;;;;13.00;5.53;;;;;;;26.88;55.70;98439.19;5075873;28;20052;-93
2022/09/09 11:36:47;;;;;;;11.88;5.55;;;;;;;26.56;54.83;98440.50;5076459;28;20040;-94